sensor_id;sensor_type;location;lat;lon;timestamp;temperature;humidity
54518;DHT22;40423;53.176;6.002;2023-04-03T00:01:07;3.40;99.90
54518;DHT22;40423;53.176;6.002;2023-04-03T00:03:33;3.30;99.90
54518;DHT22;40423;53.176;6.002;2023-04-03T00:06:00;3.40;99.90
54518;DHT22;40423;53.176;6.002;2023-04-03T00:08:26;3.30;99.90
54518;DHT22;40423;53.176;6.002;2023-04-03T00:10:51;3.30;99.90
54518;DHT22;40423;53.176;6.002;2023-04-03T00:13:17;3.30;99.90
54518;DHT22;40423;53.176;6.002;2023-04-03T00:15:43;3.30;99.90
54518;DHT22;40423;53.176;6.002;2023-04-03T00:18:09;3.30;99.90
54518;DHT22;40423;53.176;6.002;2023-04-03T00:20:35;3.30;99.90
54518;DHT22;40423;53.176;6.002;2023-04-03T00:23:02;3.20;99.90
54518;DHT22;40423;53.176;6.002;2023-04-03T00:25:28;3.20;99.90
54518;DHT22;40423;53.176;6.002;2023-04-03T00:27:54;3.30;99.90
54518;DHT22;40423;53.176;6.002;2023-04-03T00:30:21;3.30;99.90
54518;DHT22;40423;53.176;6.002;2023-04-03T00:32:51;3.20;99.90
54518;DHT22;40423;53.176;6.002;2023-04-03T00:35:18;3.20;99.90
54518;DHT22;40423;53.176;6.002;2023-04-03T00:37:44;3.20;99.90
54518;DHT22;40423;53.176;6.002;2023-04-03T00:40:11;3.20;99.90
54518;DHT22;40423;53.176;6.002;2023-04-03T00:42:38;3.10;99.90
54518;DHT22;40423;53.176;6.002;2023-04-03T00:47:31;3.10;99.90
54518;DHT22;40423;53.176;6.002;2023-04-03T00:49:57;3.10;99.90
54518;DHT22;40423;53.176;6.002;2023-04-03T00:52:26;3.10;99.90
54518;DHT22;40423;53.176;6.002;2023-04-03T00:54:57;3.00;99.90
54518;DHT22;40423;53.176;6.002;2023-04-03T00:57:23;3.10;99.90
54518;DHT22;40423;53.176;6.002;2023-04-03T00:59:55;3.00;99.90
54518;DHT22;40423;53.176;6.002;2023-04-03T01:02:22;3.00;99.90
54518;DHT22;40423;53.176;6.002;2023-04-03T01:04:47;3.00;99.90
54518;DHT22;40423;53.176;6.002;2023-04-03T01:07:26;3.00;99.90
54518;DHT22;40423;53.176;6.002;2023-04-03T01:10:00;2.90;99.90
54518;DHT22;40423;53.176;6.002;2023-04-03T01:12:27;2.90;99.90
54518;DHT22;40423;53.176;6.002;2023-04-03T01:14:55;2.90;99.90
54518;DHT22;40423;53.176;6.002;2023-04-03T01:17:34;2.90;99.90
54518;DHT22;40423;53.176;6.002;2023-04-03T01:25:29;2.80;99.90
54518;DHT22;40423;53.176;6.002;2023-04-03T01:27:55;2.70;99.90
54518;DHT22;40423;53.176;6.002;2023-04-03T01:30:25;2.70;99.90
54518;DHT22;40423;53.176;6.002;2023-04-03T01:32:53;2.70;99.90
54518;DHT22;40423;53.176;6.002;2023-04-03T01:35:18;2.60;99.90
54518;DHT22;40423;53.176;6.002;2023-04-03T01:37:44;2.60;99.90
54518;DHT22;40423;53.176;6.002;2023-04-03T01:40:10;2.60;99.90
54518;DHT22;40423;53.176;6.002;2023-04-03T01:42:36;2.50;99.90
54518;DHT22;40423;53.176;6.002;2023-04-03T01:45:02;2.50;99.90
54518;DHT22;40423;53.176;6.002;2023-04-03T01:47:27;2.40;99.90
54518;DHT22;40423;53.176;6.002;2023-04-03T01:49:53;2.50;99.90
54518;DHT22;40423;53.176;6.002;2023-04-03T01:52:19;2.40;99.90
54518;DHT22;40423;53.176;6.002;2023-04-03T01:54:44;2.40;99.90
54518;DHT22;40423;53.176;6.002;2023-04-03T01:57:10;2.40;99.90
54518;DHT22;40423;53.176;6.002;2023-04-03T01:59:36;2.40;99.90
54518;DHT22;40423;53.176;6.002;2023-04-03T02:02:02;2.30;99.90
54518;DHT22;40423;53.176;6.002;2023-04-03T02:04:27;2.30;99.90
54518;DHT22;40423;53.176;6.002;2023-04-03T02:06:53;2.30;99.90
54518;DHT22;40423;53.176;6.002;2023-04-03T02:09:19;2.30;99.90
54518;DHT22;40423;53.176;6.002;2023-04-03T02:11:44;2.30;99.90
54518;DHT22;40423;53.176;6.002;2023-04-03T02:14:10;2.30;99.90
54518;DHT22;40423;53.176;6.002;2023-04-03T02:16:36;2.30;99.90
54518;DHT22;40423;53.176;6.002;2023-04-03T02:19:02;2.30;99.90
54518;DHT22;40423;53.176;6.002;2023-04-03T02:21:27;2.20;99.90
54518;DHT22;40423;53.176;6.002;2023-04-03T02:23:53;2.20;99.90
54518;DHT22;40423;53.176;6.002;2023-04-03T02:26:19;2.20;99.90
54518;DHT22;40423;53.176;6.002;2023-04-03T02:28:45;2.20;99.90
54518;DHT22;40423;53.176;6.002;2023-04-03T02:31:11;2.20;99.90
54518;DHT22;40423;53.176;6.002;2023-04-03T02:33:37;2.20;99.90
54518;DHT22;40423;53.176;6.002;2023-04-03T02:36:04;2.10;99.90
54518;DHT22;40423;53.176;6.002;2023-04-03T02:38:31;2.10;99.90
54518;DHT22;40423;53.176;6.002;2023-04-03T02:41:04;2.10;99.90
54518;DHT22;40423;53.176;6.002;2023-04-03T02:43:30;2.10;99.90
54518;DHT22;40423;53.176;6.002;2023-04-03T02:45:56;2.00;99.90
54518;DHT22;40423;53.176;6.002;2023-04-03T02:48:22;2.00;99.90
54518;DHT22;40423;53.176;6.002;2023-04-03T02:50:48;2.00;99.90
54518;DHT22;40423;53.176;6.002;2023-04-03T02:53:14;2.00;99.90
54518;DHT22;40423;53.176;6.002;2023-04-03T02:55:40;2.00;99.90
54518;DHT22;40423;53.176;6.002;2023-04-03T02:58:07;2.00;99.90
54518;DHT22;40423;53.176;6.002;2023-04-03T03:00:32;1.90;99.90
54518;DHT22;40423;53.176;6.002;2023-04-03T03:02:58;1.90;99.90
54518;DHT22;40423;53.176;6.002;2023-04-03T03:05:26;1.90;99.90
54518;DHT22;40423;53.176;6.002;2023-04-03T03:07:52;1.80;99.90
54518;DHT22;40423;53.176;6.002;2023-04-03T03:10:18;1.80;99.90
54518;DHT22;40423;53.176;6.002;2023-04-03T03:12:44;1.80;99.90
54518;DHT22;40423;53.176;6.002;2023-04-03T03:15:10;1.80;99.90
54518;DHT22;40423;53.176;6.002;2023-04-03T03:17:36;1.80;99.90
54518;DHT22;40423;53.176;6.002;2023-04-03T03:20:03;1.80;99.90
54518;DHT22;40423;53.176;6.002;2023-04-03T03:22:29;1.80;99.90
54518;DHT22;40423;53.176;6.002;2023-04-03T03:24:55;1.70;99.90
54518;DHT22;40423;53.176;6.002;2023-04-03T03:27:20;1.70;99.90
54518;DHT22;40423;53.176;6.002;2023-04-03T03:29:46;1.70;99.90
54518;DHT22;40423;53.176;6.002;2023-04-03T03:32:12;1.70;99.90
54518;DHT22;40423;53.176;6.002;2023-04-03T03:34:38;1.80;99.90
54518;DHT22;40423;53.176;6.002;2023-04-03T03:37:04;1.70;99.90
54518;DHT22;40423;53.176;6.002;2023-04-03T03:39:30;1.70;99.90
54518;DHT22;40423;53.176;6.002;2023-04-03T03:41:55;1.70;99.90
54518;DHT22;40423;53.176;6.002;2023-04-03T03:44:21;1.70;99.90
54518;DHT22;40423;53.176;6.002;2023-04-03T03:46:47;1.60;99.90
54518;DHT22;40423;53.176;6.002;2023-04-03T03:49:13;1.60;99.90
54518;DHT22;40423;53.176;6.002;2023-04-03T03:51:39;1.60;99.90
54518;DHT22;40423;53.176;6.002;2023-04-03T03:54:06;1.60;99.90
54518;DHT22;40423;53.176;6.002;2023-04-03T03:56:32;1.60;99.90
54518;DHT22;40423;53.176;6.002;2023-04-03T03:58:58;1.60;99.90
54518;DHT22;40423;53.176;6.002;2023-04-03T04:01:24;1.60;99.90
54518;DHT22;40423;53.176;6.002;2023-04-03T04:03:50;1.60;99.90
54518;DHT22;40423;53.176;6.002;2023-04-03T04:06:16;1.60;99.90
54518;DHT22;40423;53.176;6.002;2023-04-03T04:08:42;1.60;99.90
54518;DHT22;40423;53.176;6.002;2023-04-03T04:11:08;1.60;99.90
54518;DHT22;40423;53.176;6.002;2023-04-03T04:13:34;1.60;99.90
54518;DHT22;40423;53.176;6.002;2023-04-03T04:16:00;1.50;99.90
54518;DHT22;40423;53.176;6.002;2023-04-03T04:18:26;1.50;99.90
54518;DHT22;40423;53.176;6.002;2023-04-03T04:20:52;1.50;99.90
54518;DHT22;40423;53.176;6.002;2023-04-03T04:23:18;1.50;99.90
54518;DHT22;40423;53.176;6.002;2023-04-03T04:25:48;1.50;99.90
54518;DHT22;40423;53.176;6.002;2023-04-03T04:28:14;1.40;99.90
54518;DHT22;40423;53.176;6.002;2023-04-03T04:30:40;1.40;99.90
54518;DHT22;40423;53.176;6.002;2023-04-03T04:33:06;1.40;99.90
54518;DHT22;40423;53.176;6.002;2023-04-03T04:35:32;1.40;99.90
54518;DHT22;40423;53.176;6.002;2023-04-03T04:37:58;1.40;99.90
54518;DHT22;40423;53.176;6.002;2023-04-03T04:40:26;1.30;99.90
54518;DHT22;40423;53.176;6.002;2023-04-03T04:42:51;1.30;99.90
54518;DHT22;40423;53.176;6.002;2023-04-03T04:45:17;1.30;99.90
54518;DHT22;40423;53.176;6.002;2023-04-03T04:47:43;1.30;99.90
54518;DHT22;40423;53.176;6.002;2023-04-03T04:50:10;1.30;99.90
54518;DHT22;40423;53.176;6.002;2023-04-03T04:52:36;1.30;99.90
54518;DHT22;40423;53.176;6.002;2023-04-03T04:55:01;1.30;99.90
54518;DHT22;40423;53.176;6.002;2023-04-03T04:57:27;1.30;99.90
54518;DHT22;40423;53.176;6.002;2023-04-03T04:59:53;1.30;99.90
54518;DHT22;40423;53.176;6.002;2023-04-03T05:02:19;1.30;99.90
54518;DHT22;40423;53.176;6.002;2023-04-03T05:04:44;1.30;99.90
54518;DHT22;40423;53.176;6.002;2023-04-03T05:07:10;1.30;99.90
54518;DHT22;40423;53.176;6.002;2023-04-03T05:09:36;1.30;99.90
54518;DHT22;40423;53.176;6.002;2023-04-03T05:12:02;1.20;99.90
54518;DHT22;40423;53.176;6.002;2023-04-03T05:14:28;1.30;99.90
54518;DHT22;40423;53.176;6.002;2023-04-03T05:16:54;1.20;99.90
54518;DHT22;40423;53.176;6.002;2023-04-03T05:19:20;1.20;99.90
54518;DHT22;40423;53.176;6.002;2023-04-03T05:21:47;1.20;99.90
54518;DHT22;40423;53.176;6.002;2023-04-03T05:24:13;1.20;99.90
54518;DHT22;40423;53.176;6.002;2023-04-03T05:26:39;1.20;99.90
54518;DHT22;40423;53.176;6.002;2023-04-03T05:29:04;1.20;99.90
54518;DHT22;40423;53.176;6.002;2023-04-03T05:31:30;1.20;99.90
54518;DHT22;40423;53.176;6.002;2023-04-03T05:33:56;1.20;99.90
54518;DHT22;40423;53.176;6.002;2023-04-03T05:36:22;1.20;99.90
54518;DHT22;40423;53.176;6.002;2023-04-03T05:38:48;1.10;99.90
54518;DHT22;40423;53.176;6.002;2023-04-03T05:41:15;1.20;99.90
54518;DHT22;40423;53.176;6.002;2023-04-03T05:43:41;1.20;99.90
54518;DHT22;40423;53.176;6.002;2023-04-03T05:46:15;1.20;99.90
54518;DHT22;40423;53.176;6.002;2023-04-03T05:48:41;1.20;99.90
54518;DHT22;40423;53.176;6.002;2023-04-03T05:51:14;1.20;99.90
54518;DHT22;40423;53.176;6.002;2023-04-03T05:53:40;1.30;99.90
54518;DHT22;40423;53.176;6.002;2023-04-03T05:56:06;1.30;99.90
54518;DHT22;40423;53.176;6.002;2023-04-03T05:58:32;1.30;99.90
54518;DHT22;40423;53.176;6.002;2023-04-03T06:00:58;1.30;99.90
54518;DHT22;40423;53.176;6.002;2023-04-03T06:03:23;1.30;99.90
54518;DHT22;40423;53.176;6.002;2023-04-03T06:05:49;1.30;99.90
54518;DHT22;40423;53.176;6.002;2023-04-03T06:08:15;1.40;99.90
54518;DHT22;40423;53.176;6.002;2023-04-03T06:10:41;1.40;99.90
54518;DHT22;40423;53.176;6.002;2023-04-03T06:13:06;1.40;99.90
54518;DHT22;40423;53.176;6.002;2023-04-03T06:15:32;1.40;99.90
54518;DHT22;40423;53.176;6.002;2023-04-03T06:17:59;1.50;99.90
54518;DHT22;40423;53.176;6.002;2023-04-03T06:20:25;1.60;99.90
54518;DHT22;40423;53.176;6.002;2023-04-03T06:22:51;1.60;99.90
54518;DHT22;40423;53.176;6.002;2023-04-03T06:25:17;1.60;99.90
54518;DHT22;40423;53.176;6.002;2023-04-03T06:27:44;1.60;99.90
54518;DHT22;40423;53.176;6.002;2023-04-03T06:30:11;1.70;99.90
54518;DHT22;40423;53.176;6.002;2023-04-03T06:32:37;1.70;99.90
54518;DHT22;40423;53.176;6.002;2023-04-03T06:35:04;1.80;99.90
54518;DHT22;40423;53.176;6.002;2023-04-03T06:37:30;1.80;99.90
54518;DHT22;40423;53.176;6.002;2023-04-03T06:39:56;1.90;99.90
54518;DHT22;40423;53.176;6.002;2023-04-03T06:42:22;2.00;99.90
54518;DHT22;40423;53.176;6.002;2023-04-03T06:44:48;2.10;99.90
54518;DHT22;40423;53.176;6.002;2023-04-03T06:47:14;2.10;99.90
54518;DHT22;40423;53.176;6.002;2023-04-03T06:49:41;2.10;99.90
54518;DHT22;40423;53.176;6.002;2023-04-03T06:52:08;2.20;99.90
54518;DHT22;40423;53.176;6.002;2023-04-03T06:54:34;2.30;99.90
54518;DHT22;40423;53.176;6.002;2023-04-03T06:57:00;2.40;99.90
54518;DHT22;40423;53.176;6.002;2023-04-03T06:59:26;2.50;99.90
54518;DHT22;40423;53.176;6.002;2023-04-03T07:01:52;2.60;99.90
54518;DHT22;40423;53.176;6.002;2023-04-03T07:04:18;2.70;99.90
54518;DHT22;40423;53.176;6.002;2023-04-03T07:06:46;2.70;99.90
54518;DHT22;40423;53.176;6.002;2023-04-03T07:09:13;2.90;99.90
54518;DHT22;40423;53.176;6.002;2023-04-03T07:11:39;3.00;99.90
54518;DHT22;40423;53.176;6.002;2023-04-03T07:14:04;3.10;99.90
54518;DHT22;40423;53.176;6.002;2023-04-03T07:16:31;3.30;99.90
54518;DHT22;40423;53.176;6.002;2023-04-03T07:18:57;3.40;99.90
54518;DHT22;40423;53.176;6.002;2023-04-03T07:21:23;3.50;99.90
54518;DHT22;40423;53.176;6.002;2023-04-03T07:23:49;3.80;99.90
54518;DHT22;40423;53.176;6.002;2023-04-03T07:26:15;3.90;99.90
54518;DHT22;40423;53.176;6.002;2023-04-03T07:28:41;4.00;99.90
54518;DHT22;40423;53.176;6.002;2023-04-03T07:31:11;4.10;99.90
54518;DHT22;40423;53.176;6.002;2023-04-03T07:33:39;4.20;99.90
54518;DHT22;40423;53.176;6.002;2023-04-03T07:36:05;4.30;99.90
54518;DHT22;40423;53.176;6.002;2023-04-03T07:38:33;4.40;99.90
54518;DHT22;40423;53.176;6.002;2023-04-03T07:40:59;4.50;99.90
54518;DHT22;40423;53.176;6.002;2023-04-03T07:43:25;4.60;99.90
54518;DHT22;40423;53.176;6.002;2023-04-03T07:45:51;4.60;99.90
54518;DHT22;40423;53.176;6.002;2023-04-03T07:48:24;4.70;99.90
54518;DHT22;40423;53.176;6.002;2023-04-03T07:50:51;4.80;99.90
54518;DHT22;40423;53.176;6.002;2023-04-03T07:53:18;5.00;99.90
54518;DHT22;40423;53.176;6.002;2023-04-03T07:55:46;5.00;99.90
54518;DHT22;40423;53.176;6.002;2023-04-03T07:58:16;5.00;99.90
54518;DHT22;40423;53.176;6.002;2023-04-03T08:00:44;5.00;99.90
54518;DHT22;40423;53.176;6.002;2023-04-03T08:03:10;5.10;99.90
54518;DHT22;40423;53.176;6.002;2023-04-03T08:05:48;5.20;99.90
54518;DHT22;40423;53.176;6.002;2023-04-03T08:08:20;5.40;99.90
54518;DHT22;40423;53.176;6.002;2023-04-03T08:10:53;5.50;99.90
54518;DHT22;40423;53.176;6.002;2023-04-03T08:13:21;5.50;99.90
54518;DHT22;40423;53.176;6.002;2023-04-03T08:15:47;5.50;99.90
54518;DHT22;40423;53.176;6.002;2023-04-03T08:18:14;5.60;99.90
54518;DHT22;40423;53.176;6.002;2023-04-03T08:20:40;5.80;99.90
54518;DHT22;40423;53.176;6.002;2023-04-03T08:23:07;5.90;99.90
54518;DHT22;40423;53.176;6.002;2023-04-03T08:25:37;5.90;99.90
54518;DHT22;40423;53.176;6.002;2023-04-03T08:28:03;6.00;99.90
54518;DHT22;40423;53.176;6.002;2023-04-03T08:30:29;6.00;99.90
54518;DHT22;40423;53.176;6.002;2023-04-03T08:32:55;6.20;99.90
54518;DHT22;40423;53.176;6.002;2023-04-03T08:35:20;6.30;99.90
54518;DHT22;40423;53.176;6.002;2023-04-03T08:37:46;6.40;99.90
54518;DHT22;40423;53.176;6.002;2023-04-03T08:40:15;6.40;99.90
54518;DHT22;40423;53.176;6.002;2023-04-03T08:45:51;6.80;98.70
54518;DHT22;40423;53.176;6.002;2023-04-03T08:48:27;6.70;98.80
54518;DHT22;40423;53.176;6.002;2023-04-03T08:50:58;6.80;98.90
54518;DHT22;40423;53.176;6.002;2023-04-03T08:53:28;7.00;98.60
54518;DHT22;40423;53.176;6.002;2023-04-03T08:55:57;7.10;98.20
54518;DHT22;40423;53.176;6.002;2023-04-03T08:58:32;7.20;98.10
54518;DHT22;40423;53.176;6.002;2023-04-03T09:01:05;7.30;97.90
54518;DHT22;40423;53.176;6.002;2023-04-03T09:03:38;7.30;98.00
54518;DHT22;40423;53.176;6.002;2023-04-03T09:06:34;7.50;98.10
54518;DHT22;40423;53.176;6.002;2023-04-03T09:09:24;7.60;97.70
54518;DHT22;40423;53.176;6.002;2023-04-03T09:17:13;8.00;95.20
54518;DHT22;40423;53.176;6.002;2023-04-03T09:19:54;8.00;95.80
54518;DHT22;40423;53.176;6.002;2023-04-03T09:22:27;7.90;92.30
54518;DHT22;40423;53.176;6.002;2023-04-03T09:25:05;7.90;94.50
54518;DHT22;40423;53.176;6.002;2023-04-03T09:27:34;8.00;95.60
54518;DHT22;40423;53.176;6.002;2023-04-03T09:29:59;8.20;94.60
54518;DHT22;40423;53.176;6.002;2023-04-03T09:32:28;8.30;93.90
54518;DHT22;40423;53.176;6.002;2023-04-03T09:34:57;8.20;92.30
54518;DHT22;40423;53.176;6.002;2023-04-03T09:40:02;8.40;93.70
54518;DHT22;40423;53.176;6.002;2023-04-03T09:42:30;8.50;93.00
54518;DHT22;40423;53.176;6.002;2023-04-03T09:44:57;8.50;92.50
54518;DHT22;40423;53.176;6.002;2023-04-03T09:47:33;8.50;91.50
54518;DHT22;40423;53.176;6.002;2023-04-03T09:52:58;8.90;92.00
54518;DHT22;40423;53.176;6.002;2023-04-03T09:55:26;9.20;93.30
54518;DHT22;40423;53.176;6.002;2023-04-03T09:58:01;9.30;90.00
54518;DHT22;40423;53.176;6.002;2023-04-03T10:00:35;9.30;90.90
54518;DHT22;40423;53.176;6.002;2023-04-03T10:03:01;9.30;89.40
54518;DHT22;40423;53.176;6.002;2023-04-03T10:05:34;9.30;90.50
54518;DHT22;40423;53.176;6.002;2023-04-03T10:10:44;9.50;90.80
54518;DHT22;40423;53.176;6.002;2023-04-03T10:13:18;9.60;90.80
54518;DHT22;40423;53.176;6.002;2023-04-03T10:15:51;9.60;87.00
54518;DHT22;40423;53.176;6.002;2023-04-03T10:21:02;9.60;86.40
54518;DHT22;40423;53.176;6.002;2023-04-03T10:23:44;9.50;82.70
54518;DHT22;40423;53.176;6.002;2023-04-03T10:26:21;9.50;84.60
54518;DHT22;40423;53.176;6.002;2023-04-03T10:34:43;10.00;83.30
54518;DHT22;40423;53.176;6.002;2023-04-03T10:37:26;9.90;80.90
54518;DHT22;40423;53.176;6.002;2023-04-03T10:40:02;9.90;83.80
54518;DHT22;40423;53.176;6.002;2023-04-03T10:42:55;10.00;81.40
54518;DHT22;40423;53.176;6.002;2023-04-03T10:51:07;10.00;80.70
54518;DHT22;40423;53.176;6.002;2023-04-03T10:57:04;10.10;81.30
54518;DHT22;40423;53.176;6.002;2023-04-03T11:05:13;10.50;74.70
54518;DHT22;40423;53.176;6.002;2023-04-03T11:07:45;10.60;80.10
54518;DHT22;40423;53.176;6.002;2023-04-03T11:10:25;10.60;75.20
54518;DHT22;40423;53.176;6.002;2023-04-03T11:13:06;10.50;76.40
54518;DHT22;40423;53.176;6.002;2023-04-03T11:15:33;10.50;76.40
54518;DHT22;40423;53.176;6.002;2023-04-03T11:18:04;10.40;75.10
54518;DHT22;40423;53.176;6.002;2023-04-03T11:20:32;10.50;78.50
54518;DHT22;40423;53.176;6.002;2023-04-03T11:23:04;10.70;79.30
54518;DHT22;40423;53.176;6.002;2023-04-03T11:25:33;11.00;77.20
54518;DHT22;40423;53.176;6.002;2023-04-03T11:28:05;11.00;77.30
54518;DHT22;40423;53.176;6.002;2023-04-03T11:36:30;10.80;75.10
54518;DHT22;40423;53.176;6.002;2023-04-03T11:39:16;10.60;74.00
54518;DHT22;40423;53.176;6.002;2023-04-03T11:41:44;10.70;75.60
54518;DHT22;40423;53.176;6.002;2023-04-03T11:44:30;10.70;74.10
54518;DHT22;40423;53.176;6.002;2023-04-03T11:47:02;10.90;75.00
54518;DHT22;40423;53.176;6.002;2023-04-03T11:50:03;11.10;75.60
54518;DHT22;40423;53.176;6.002;2023-04-03T12:08:43;11.20;71.70
54518;DHT22;40423;53.176;6.002;2023-04-03T12:45:27;12.10;70.10
54518;DHT22;40423;53.176;6.002;2023-04-03T12:47:54;12.10;70.70
54518;DHT22;40423;53.176;6.002;2023-04-03T12:50:28;12.30;70.70
54518;DHT22;40423;53.176;6.002;2023-04-03T12:56:24;12.00;64.90
54518;DHT22;40423;53.176;6.002;2023-04-03T12:58:52;11.80;68.30
54518;DHT22;40423;53.176;6.002;2023-04-03T13:01:25;11.90;69.90
54518;DHT22;40423;53.176;6.002;2023-04-03T13:03:57;12.00;67.10
54518;DHT22;40423;53.176;6.002;2023-04-03T13:06:23;12.20;70.10
54518;DHT22;40423;53.176;6.002;2023-04-03T13:08:56;12.40;70.60
54518;DHT22;40423;53.176;6.002;2023-04-03T13:11:25;12.60;70.30
54518;DHT22;40423;53.176;6.002;2023-04-03T13:14:00;12.70;69.00
54518;DHT22;40423;53.176;6.002;2023-04-03T13:16:27;12.90;69.20
54518;DHT22;40423;53.176;6.002;2023-04-03T13:18:54;12.90;67.40
54518;DHT22;40423;53.176;6.002;2023-04-03T13:21:32;12.70;67.80
54518;DHT22;40423;53.176;6.002;2023-04-03T13:24:01;12.80;66.20
54518;DHT22;40423;53.176;6.002;2023-04-03T13:26:30;12.80;67.40
54518;DHT22;40423;53.176;6.002;2023-04-03T13:29:02;13.00;68.70
54518;DHT22;40423;53.176;6.002;2023-04-03T13:31:37;12.60;65.50
54518;DHT22;40423;53.176;6.002;2023-04-03T13:34:20;12.50;67.10
54518;DHT22;40423;53.176;6.002;2023-04-03T13:41:51;13.00;68.30
54518;DHT22;40423;53.176;6.002;2023-04-03T13:44:27;13.00;66.00
54518;DHT22;40423;53.176;6.002;2023-04-03T13:46:55;13.10;68.40
54518;DHT22;40423;53.176;6.002;2023-04-03T13:49:35;13.00;67.60
54518;DHT22;40423;53.176;6.002;2023-04-03T13:52:20;12.80;65.60
54518;DHT22;40423;53.176;6.002;2023-04-03T13:54:59;12.60;67.60
54518;DHT22;40423;53.176;6.002;2023-04-03T13:57:27;12.80;68.60
54518;DHT22;40423;53.176;6.002;2023-04-03T13:59:53;12.70;67.40
54518;DHT22;40423;53.176;6.002;2023-04-03T14:02:32;12.60;68.10
54518;DHT22;40423;53.176;6.002;2023-04-03T14:05:00;12.40;66.90
54518;DHT22;40423;53.176;6.002;2023-04-03T14:07:29;12.20;68.10
54518;DHT22;40423;53.176;6.002;2023-04-03T14:09:55;12.30;69.40
54518;DHT22;40423;53.176;6.002;2023-04-03T14:12:28;12.40;68.30
54518;DHT22;40423;53.176;6.002;2023-04-03T14:14:55;12.40;68.70
54518;DHT22;40423;53.176;6.002;2023-04-03T14:17:23;12.30;68.60
54518;DHT22;40423;53.176;6.002;2023-04-03T14:19:51;12.20;66.50
54518;DHT22;40423;53.176;6.002;2023-04-03T14:22:23;12.00;67.10
54518;DHT22;40423;53.176;6.002;2023-04-03T14:24:51;11.60;66.50
54518;DHT22;40423;53.176;6.002;2023-04-03T14:27:22;11.10;66.40
54518;DHT22;40423;53.176;6.002;2023-04-03T14:29:49;10.70;66.80
54518;DHT22;40423;53.176;6.002;2023-04-03T14:32:16;10.60;68.10
54518;DHT22;40423;53.176;6.002;2023-04-03T14:34:43;10.50;68.80
54518;DHT22;40423;53.176;6.002;2023-04-03T14:37:15;10.40;69.30
54518;DHT22;40423;53.176;6.002;2023-04-03T14:39:42;10.40;69.90
54518;DHT22;40423;53.176;6.002;2023-04-03T14:42:20;10.50;69.60
54518;DHT22;40423;53.176;6.002;2023-04-03T14:44:46;10.50;70.30
54518;DHT22;40423;53.176;6.002;2023-04-03T14:47:13;10.40;69.00
54518;DHT22;40423;53.176;6.002;2023-04-03T14:49:39;10.20;68.50
54518;DHT22;40423;53.176;6.002;2023-04-03T14:52:05;10.20;69.90
54518;DHT22;40423;53.176;6.002;2023-04-03T14:54:31;10.20;69.20
54518;DHT22;40423;53.176;6.002;2023-04-03T14:56:59;10.10;67.80
54518;DHT22;40423;53.176;6.002;2023-04-03T14:59:31;9.80;69.40
54518;DHT22;40423;53.176;6.002;2023-04-03T15:01:58;9.70;73.10
54518;DHT22;40423;53.176;6.002;2023-04-03T15:04:23;9.80;75.10
54518;DHT22;40423;53.176;6.002;2023-04-03T15:06:51;9.80;74.70
54518;DHT22;40423;53.176;6.002;2023-04-03T15:09:20;9.80;75.30
54518;DHT22;40423;53.176;6.002;2023-04-03T15:11:47;9.80;75.40
54518;DHT22;40423;53.176;6.002;2023-04-03T15:14:13;9.70;76.20
54518;DHT22;40423;53.176;6.002;2023-04-03T15:16:39;9.80;77.20
54518;DHT22;40423;53.176;6.002;2023-04-03T15:19:05;9.70;77.10
54518;DHT22;40423;53.176;6.002;2023-04-03T15:21:31;9.50;76.60
54518;DHT22;40423;53.176;6.002;2023-04-03T15:23:56;9.40;76.70
54518;DHT22;40423;53.176;6.002;2023-04-03T15:26:22;9.30;77.60
54518;DHT22;40423;53.176;6.002;2023-04-03T15:28:48;9.30;78.10
54518;DHT22;40423;53.176;6.002;2023-04-03T15:31:13;9.30;77.10
54518;DHT22;40423;53.176;6.002;2023-04-03T15:33:39;9.20;76.80
54518;DHT22;40423;53.176;6.002;2023-04-03T15:36:06;9.20;77.90
54518;DHT22;40423;53.176;6.002;2023-04-03T15:38:32;9.20;78.20
54518;DHT22;40423;53.176;6.002;2023-04-03T15:40:57;9.20;78.80
54518;DHT22;40423;53.176;6.002;2023-04-03T15:43:23;9.10;78.60
54518;DHT22;40423;53.176;6.002;2023-04-03T15:45:49;9.10;79.30
54518;DHT22;40423;53.176;6.002;2023-04-03T15:48:16;9.00;79.90
54518;DHT22;40423;53.176;6.002;2023-04-03T15:50:42;9.10;80.10
54518;DHT22;40423;53.176;6.002;2023-04-03T15:53:09;9.10;80.90
54518;DHT22;40423;53.176;6.002;2023-04-03T15:55:37;9.00;80.50
54518;DHT22;40423;53.176;6.002;2023-04-03T15:58:03;8.90;80.10
54518;DHT22;40423;53.176;6.002;2023-04-03T16:00:30;8.80;80.80
54518;DHT22;40423;53.176;6.002;2023-04-03T16:02:59;8.80;80.50
54518;DHT22;40423;53.176;6.002;2023-04-03T16:05:27;8.80;80.50
54518;DHT22;40423;53.176;6.002;2023-04-03T16:07:53;8.70;81.30
54518;DHT22;40423;53.176;6.002;2023-04-03T16:10:20;8.80;80.60
54518;DHT22;40423;53.176;6.002;2023-04-03T16:12:46;8.70;80.60
54518;DHT22;40423;53.176;6.002;2023-04-03T16:15:12;8.40;80.40
54518;DHT22;40423;53.176;6.002;2023-04-03T16:17:38;8.70;81.10
54518;DHT22;40423;53.176;6.002;2023-04-03T16:20:07;8.70;81.20
54518;DHT22;40423;53.176;6.002;2023-04-03T16:22:34;8.70;79.50
54518;DHT22;40423;53.176;6.002;2023-04-03T16:25:01;8.70;80.40
54518;DHT22;40423;53.176;6.002;2023-04-03T16:27:27;8.70;80.30
54518;DHT22;40423;53.176;6.002;2023-04-03T16:29:54;8.60;80.50
54518;DHT22;40423;53.176;6.002;2023-04-03T16:32:20;8.60;80.10
54518;DHT22;40423;53.176;6.002;2023-04-03T16:34:47;8.60;80.80
54518;DHT22;40423;53.176;6.002;2023-04-03T16:37:13;8.50;80.90
54518;DHT22;40423;53.176;6.002;2023-04-03T16:39:40;8.50;81.20
54518;DHT22;40423;53.176;6.002;2023-04-03T16:42:05;8.40;81.00
54518;DHT22;40423;53.176;6.002;2023-04-03T16:44:31;8.40;81.10
54518;DHT22;40423;53.176;6.002;2023-04-03T16:46:57;8.40;81.10
54518;DHT22;40423;53.176;6.002;2023-04-03T16:49:23;8.30;81.00
54518;DHT22;40423;53.176;6.002;2023-04-03T16:51:49;8.30;81.50
54518;DHT22;40423;53.176;6.002;2023-04-03T16:54:15;8.30;82.10
54518;DHT22;40423;53.176;6.002;2023-04-03T16:56:40;8.20;82.60
54518;DHT22;40423;53.176;6.002;2023-04-03T16:59:06;8.20;83.10
54518;DHT22;40423;53.176;6.002;2023-04-03T17:01:32;8.10;83.20
54518;DHT22;40423;53.176;6.002;2023-04-03T17:03:58;8.10;83.30
54518;DHT22;40423;53.176;6.002;2023-04-03T17:06:24;8.10;83.60
54518;DHT22;40423;53.176;6.002;2023-04-03T17:08:51;8.00;83.30
54518;DHT22;40423;53.176;6.002;2023-04-03T17:11:18;7.90;83.90
54518;DHT22;40423;53.176;6.002;2023-04-03T17:13:43;7.90;84.50
54518;DHT22;40423;53.176;6.002;2023-04-03T17:16:12;7.90;84.00
54518;DHT22;40423;53.176;6.002;2023-04-03T17:18:39;7.90;84.40
54518;DHT22;40423;53.176;6.002;2023-04-03T17:21:05;7.80;84.80
54518;DHT22;40423;53.176;6.002;2023-04-03T17:23:32;7.80;84.70
54518;DHT22;40423;53.176;6.002;2023-04-03T17:26:00;7.80;84.90
54518;DHT22;40423;53.176;6.002;2023-04-03T17:28:26;7.70;84.90
54518;DHT22;40423;53.176;6.002;2023-04-03T17:30:57;7.70;85.30
54518;DHT22;40423;53.176;6.002;2023-04-03T17:33:24;7.70;86.00
54518;DHT22;40423;53.176;6.002;2023-04-03T17:35:51;7.60;86.60
54518;DHT22;40423;53.176;6.002;2023-04-03T17:38:17;7.60;86.90
54518;DHT22;40423;53.176;6.002;2023-04-03T17:40:43;7.60;87.40